Time;durP1;ratioP1;P1;durP2;ratioP2;P2;SDS_P1;SDS_P2;PMS_P1;PMS_P2;Temp;Humidity;BMP_temperature;BMP_pressure;BME280_temperature;BME280_humidity;BME280_pressure;Samples;Min_cycle;Max_cycle;Signal;HPM_P1;HPM_P2
2024/01/20 00:02:31;;;;;;;61.67;26.80;;;;;;;;;;10111861;29;20036;-80
2024/01/20 00:07:33;;;;;;;78.97;31.00;;;;;;;;;;10124460;29;20075;-79
2024/01/20 00:12:35;;;;;;;72.17;30.67;;;;;;;;;;10108989;29;20047;-79
2024/01/20 00:17:42;;;;;;;65.90;28.00;;;;;;;;;;10096482;29;20652;-80
2024/01/20 00:22:44;;;;;;;64.80;29.63;;;;;;;;;;10104122;29;20040;-80
2024/01/20 00:27:45;;;;;;;71.60;33.17;;;;;;;;;;10105036;29;20592;-82
2024/01/20 00:32:47;;;;;;;60.97;28.37;;;;;;;;;;10100956;29;20036;-80
2024/01/20 00:37:48;;;;;;;71.57;30.53;;;;;;;;;;10091080;29;20680;-81
2024/01/20 00:42:49;;;;;;;63.17;28.43;;;;;;;;;;10082409;29;20025;-81
2024/01/20 00:47:50;;;;;;;64.17;28.47;;;;;;;;;;10077035;29;20492;-80
2024/01/20 00:52:51;;;;;;;73.53;31.37;;;;;;;;;;10062636;29;20045;-81
2024/01/20 00:57:52;;;;;;;74.33;31.90;;;;;;;;;;10083331;29;20139;-80
2024/01/20 01:02:53;;;;;;;76.73;33.17;;;;;;;;;;10083566;29;20489;-79
2024/01/20 01:07:54;;;;;;;62.57;29.93;;;;;;;;;;10075537;29;20051;-81
2024/01/20 01:12:55;;;;;;;68.23;31.10;;;;;;;;;;10082601;29;20037;-80
2024/01/20 01:17:57;;;;;;;63.53;28.83;;;;;;;;;;10075809;29;20033;-79
2024/01/20 01:22:58;;;;;;;62.27;29.20;;;;;;;;;;10081851;29;20124;-81
2024/01/20 01:27:59;;;;;;;56.57;26.27;;;;;;;;;;10081947;29;20048;-80
2024/01/20 01:33:00;;;;;;;53.87;26.70;;;;;;;;;;10082175;29;20033;-79
2024/01/20 01:38:01;;;;;;;52.70;23.13;;;;;;;;;;10079178;29;20072;-80
2024/01/20 01:43:02;;;;;;;67.17;28.90;;;;;;;;;;10082585;29;20029;-80
2024/01/20 01:48:03;;;;;;;67.23;28.43;;;;;;;;;;10080219;29;20041;-81
2024/01/20 01:53:05;;;;;;;63.27;29.30;;;;;;;;;;10062702;29;20128;-80
2024/01/20 01:58:07;;;;;;;76.30;30.70;;;;;;;;;;10074526;29;20036;-81
2024/01/20 02:03:09;;;;;;;71.20;30.10;;;;;;;;;;10078885;29;20040;-80
2024/01/20 02:08:11;;;;;;;56.50;24.60;;;;;;;;;;10081286;29;20045;-79
2024/01/20 02:13:12;;;;;;;49.57;24.90;;;;;;;;;;10070931;29;20041;-81
2024/01/20 02:18:13;;;;;;;58.30;25.23;;;;;;;;;;10068161;29;20068;-81
2024/01/20 02:23:14;;;;;;;65.10;29.97;;;;;;;;;;10080194;29;20112;-79
2024/01/20 02:28:15;;;;;;;59.60;28.10;;;;;;;;;;10070045;29;20033;-79
2024/01/20 02:33:16;;;;;;;56.90;26.33;;;;;;;;;;10051706;29;20054;-80
2024/01/20 02:38:17;;;;;;;55.23;25.83;;;;;;;;;;10098351;29;20167;-79
2024/01/20 02:43:18;;;;;;;67.53;30.03;;;;;;;;;;10102542;29;20088;-81
2024/01/20 02:48:19;;;;;;;64.97;27.20;;;;;;;;;;10116221;29;20037;-81
2024/01/20 02:53:20;;;;;;;53.63;25.10;;;;;;;;;;10120930;29;20498;-80
2024/01/20 02:58:21;;;;;;;49.23;22.37;;;;;;;;;;10110748;29;20577;-83
2024/01/20 03:03:22;;;;;;;50.83;24.60;;;;;;;;;;10119864;29;20147;-81
2024/01/20 03:08:24;;;;;;;67.80;30.07;;;;;;;;;;10108930;29;20136;-81
2024/01/20 03:13:25;;;;;;;86.53;35.03;;;;;;;;;;10120837;29;20041;-81
2024/01/20 03:18:26;;;;;;;55.20;23.50;;;;;;;;;;10124769;29;20131;-80
2024/01/20 03:23:27;;;;;;;48.10;21.80;;;;;;;;;;10126364;29;20127;-81
2024/01/20 03:28:28;;;;;;;43.10;19.17;;;;;;;;;;10120694;29;20157;-81
2024/01/20 03:33:29;;;;;;;47.43;22.33;;;;;;;;;;10118416;29;20505;-79
2024/01/20 03:38:30;;;;;;;48.70;23.73;;;;;;;;;;10097439;29;20072;-82
2024/01/20 03:43:31;;;;;;;51.17;24.27;;;;;;;;;;10074912;29;20038;-80
2024/01/20 03:48:32;;;;;;;44.63;21.77;;;;;;;;;;10086482;29;20052;-82
2024/01/20 03:53:39;;;;;;;43.83;21.20;;;;;;;;;;10086078;29;20036;-81
2024/01/20 03:58:40;;;;;;;54.67;26.00;;;;;;;;;;10084186;29;20124;-79
2024/01/20 04:03:41;;;;;;;40.23;21.03;;;;;;;;;;10083293;29;20507;-81
2024/01/20 04:08:42;;;;;;;40.93;21.43;;;;;;;;;;10078454;29;20558;-82
2024/01/20 04:13:43;;;;;;;46.70;22.23;;;;;;;;;;10085606;29;20032;-80
2024/01/20 04:18:44;;;;;;;48.00;22.33;;;;;;;;;;10061014;29;20045;-80
2024/01/20 04:23:45;;;;;;;47.63;22.40;;;;;;;;;;10079423;29;20080;-81
2024/01/20 04:28:46;;;;;;;73.83;30.50;;;;;;;;;;10085917;29;20036;-82
2024/01/20 04:33:47;;;;;;;70.53;28.50;;;;;;;;;;10085402;29;20033;-81
2024/01/20 04:38:48;;;;;;;57.43;25.23;;;;;;;;;;10114878;29;20053;-81
2024/01/20 04:43:49;;;;;;;62.70;25.87;;;;;;;;;;10122643;29;20437;-81
2024/01/20 04:48:57;;;;;;;55.87;26.73;;;;;;;;;;10118022;29;20191;-82
2024/01/20 04:53:58;;;;;;;45.67;22.07;;;;;;;;;;10121205;29;20037;-81
2024/01/20 04:58:59;;;;;;;56.33;24.60;;;;;;;;;;10122531;29;20055;-81
2024/01/20 05:04:00;;;;;;;50.17;22.63;;;;;;;;;;10123073;29;20075;-82
2024/01/20 05:09:02;;;;;;;49.57;21.23;;;;;;;;;;10119002;29;20112;-80
2024/01/20 05:14:03;;;;;;;41.83;18.83;;;;;;;;;;10122918;29;20135;-80
2024/01/20 05:19:04;;;;;;;41.43;20.10;;;;;;;;;;10122689;29;20123;-79
2024/01/20 05:24:05;;;;;;;41.07;18.57;;;;;;;;;;10121712;29;20115;-80
2024/01/20 05:29:07;;;;;;;38.97;16.33;;;;;;;;;;10118589;29;20374;-81
2024/01/20 05:34:08;;;;;;;37.20;19.07;;;;;;;;;;10120333;29;20453;-81
2024/01/20 05:39:09;;;;;;;39.97;17.67;;;;;;;;;;10121420;29;20147;-80
2024/01/20 05:44:10;;;;;;;41.17;17.73;;;;;;;;;;10115889;29;20045;-82
2024/01/20 05:49:11;;;;;;;40.60;16.80;;;;;;;;;;10118974;29;20682;-81
2024/01/20 05:54:12;;;;;;;34.43;16.83;;;;;;;;;;10122544;29;20036;-82
2024/01/20 05:59:13;;;;;;;36.67;19.07;;;;;;;;;;10120253;29;20032;-82
2024/01/20 06:04:14;;;;;;;38.67;19.30;;;;;;;;;;10111319;29;20088;-81
2024/01/20 06:09:15;;;;;;;45.13;18.97;;;;;;;;;;10111145;29;20032;-82
2024/01/20 06:14:16;;;;;;;40.63;20.30;;;;;;;;;;10117382;29;20043;-81
2024/01/20 06:19:17;;;;;;;42.97;21.77;;;;;;;;;;10121118;29;20111;-80
2024/01/20 06:24:18;;;;;;;41.70;19.70;;;;;;;;;;10113344;29;20032;-81
2024/01/20 06:29:19;;;;;;;41.07;18.80;;;;;;;;;;10120050;29;20048;-79
2024/01/20 06:34:20;;;;;;;44.07;20.97;;;;;;;;;;10119236;29;20149;-82
2024/01/20 06:39:21;;;;;;;44.17;19.40;;;;;;;;;;10118160;29;20056;-84
2024/01/20 06:44:22;;;;;;;41.30;19.37;;;;;;;;;;10121236;29;20037;-82
2024/01/20 06:49:23;;;;;;;39.07;19.70;;;;;;;;;;10123752;29;20378;-80
2024/01/20 06:54:25;;;;;;;48.03;22.10;;;;;;;;;;10111961;29;20040;-80
2024/01/20 06:59:26;;;;;;;43.17;18.60;;;;;;;;;;10109110;29;20575;-81
2024/01/20 07:04:27;;;;;;;41.70;17.60;;;;;;;;;;10127378;29;20050;-82
2024/01/20 07:09:28;;;;;;;47.93;21.40;;;;;;;;;;10110488;29;20502;-80
2024/01/20 07:14:29;;;;;;;38.60;18.07;;;;;;;;;;10125548;29;20115;-80
2024/01/20 07:19:30;;;;;;;41.37;18.30;;;;;;;;;;10117702;29;20496;-80
2024/01/20 07:24:31;;;;;;;49.63;22.70;;;;;;;;;;10121360;29;20039;-82
2024/01/20 07:29:32;;;;;;;55.20;25.47;;;;;;;;;;10115614;29;20041;-82
2024/01/20 07:34:33;;;;;;;47.17;22.67;;;;;;;;;;10122641;29;20051;-81
2024/01/20 07:39:34;;;;;;;59.37;24.80;;;;;;;;;;10126191;29;20143;-81
2024/01/20 07:44:35;;;;;;;45.20;20.53;;;;;;;;;;10113723;29;20089;-80
2024/01/20 07:49:36;;;;;;;48.00;20.37;;;;;;;;;;10109262;29;20064;-83
2024/01/20 07:54:37;;;;;;;37.93;19.17;;;;;;;;;;10122786;29;20037;-82
2024/01/20 07:59:45;;;;;;;35.97;16.97;;;;;;;;;;10121354;29;20037;-84
2024/01/20 08:04:46;;;;;;;36.77;17.20;;;;;;;;;;10123356;29;20040;-80
2024/01/20 08:09:47;;;;;;;43.33;19.40;;;;;;;;;;10115248;29;20076;-80
2024/01/20 08:14:48;;;;;;;55.23;21.10;;;;;;;;;;10117498;29;20103;-79
2024/01/20 08:19:49;;;;;;;42.83;19.43;;;;;;;;;;10117894;29;20037;-81
2024/01/20 08:24:50;;;;;;;42.10;20.30;;;;;;;;;;10123507;29;20185;-81
2024/01/20 08:29:51;;;;;;;41.27;20.20;;;;;;;;;;10120382;29;20044;-80
2024/01/20 08:34:52;;;;;;;39.40;18.67;;;;;;;;;;10121784;29;20123;-80
2024/01/20 08:39:53;;;;;;;40.90;18.67;;;;;;;;;;10113073;29;20063;-81
2024/01/20 08:44:54;;;;;;;51.63;21.27;;;;;;;;;;10124049;29;20153;-80
2024/01/20 08:49:55;;;;;;;44.73;19.97;;;;;;;;;;10119307;29;20037;-80
2024/01/20 08:54:57;;;;;;;43.10;18.63;;;;;;;;;;10113801;29;20039;-80
2024/01/20 08:59:58;;;;;;;39.00;20.23;;;;;;;;;;10121142;29;20100;-82
2024/01/20 09:04:59;;;;;;;36.80;17.43;;;;;;;;;;10110976;29;20112;-83
2024/01/20 09:10:03;;;;;;;43.20;19.90;;;;;;;;;;10117481;29;20548;-79
2024/01/20 09:15:04;;;;;;;38.60;18.53;;;;;;;;;;10118858;29;20040;-79
2024/01/20 09:20:06;;;;;;;47.23;20.37;;;;;;;;;;10118552;29;20481;-80
2024/01/20 09:25:07;;;;;;;45.47;20.30;;;;;;;;;;10118335;29;20041;-79
2024/01/20 09:30:08;;;;;;;45.40;20.70;;;;;;;;;;10122123;29;20044;-78
2024/01/20 09:35:09;;;;;;;31.37;15.70;;;;;;;;;;10120958;29;20045;-79
2024/01/20 09:40:11;;;;;;;38.23;18.30;;;;;;;;;;10111217;29;20139;-79
2024/01/20 09:45:12;;;;;;;34.30;17.00;;;;;;;;;;10122870;29;20676;-79
2024/01/20 09:50:21;;;;;;;34.10;16.40;;;;;;;;;;10115225;29;20527;-80
2024/01/20 09:55:23;;;;;;;39.80;16.97;;;;;;;;;;10113974;29;20043;-80
2024/01/20 10:00:31;;;;;;;40.93;19.23;;;;;;;;;;10119770;29;20036;-83
2024/01/20 10:05:33;;;;;;;36.30;16.43;;;;;;;;;;10115408;29;20164;-80
2024/01/20 10:10:34;;;;;;;41.23;18.20;;;;;;;;;;10107715;29;20429;-80
2024/01/20 10:15:36;;;;;;;30.50;14.50;;;;;;;;;;10108711;29;20603;-80
2024/01/20 10:20:37;;;;;;;34.57;15.47;;;;;;;;;;10115319;29;20494;-80
2024/01/20 10:25:38;;;;;;;36.37;17.67;;;;;;;;;;10112680;29;20135;-79
2024/01/20 10:30:39;;;;;;;33.27;15.33;;;;;;;;;;10113728;29;20044;-79
2024/01/20 10:35:48;;;;;;;37.17;18.50;;;;;;;;;;10104470;29;20041;-79
2024/01/20 10:40:57;;;;;;;40.17;16.47;;;;;;;;;;10111839;29;20315;-80
2024/01/20 10:46:08;;;;;;;35.23;16.67;;;;;;;;;;10112446;29;20036;-83
2024/01/20 10:51:10;;;;;;;33.03;15.30;;;;;;;;;;10114116;29;20135;-81
2024/01/20 10:56:12;;;;;;;39.00;17.30;;;;;;;;;;10112890;29;20818;-80
2024/01/20 11:01:13;;;;;;;38.13;16.60;;;;;;;;;;10116473;29;20500;-82
2024/01/20 11:06:21;;;;;;;36.93;15.03;;;;;;;;;;10111783;29;20147;-80
2024/01/20 11:11:27;;;;;;;31.97;15.63;;;;;;;;;;10114894;29;20037;-79
2024/01/20 11:16:32;;;;;;;35.23;16.90;;;;;;;;;;10116914;29;20036;-82
2024/01/20 11:21:33;;;;;;;36.43;16.13;;;;;;;;;;10118329;29;20035;-81
2024/01/20 11:26:36;;;;;;;41.37;16.13;;;;;;;;;;10110504;29;20063;-82
2024/01/20 11:31:43;;;;;;;32.87;16.13;;;;;;;;;;10117101;29;20518;-81
2024/01/20 11:36:45;;;;;;;38.83;15.97;;;;;;;;;;10123016;29;20135;-80
2024/01/20 11:41:46;;;;;;;43.30;21.13;;;;;;;;;;10122968;29;20037;-81
2024/01/20 11:46:48;;;;;;;40.67;21.43;;;;;;;;;;10124082;29;20036;-80
2024/01/20 11:51:49;;;;;;;48.43;19.40;;;;;;;;;;10129468;29;20040;-81
2024/01/20 11:56:56;;;;;;;44.90;21.60;;;;;;;;;;10121640;29;20029;-84
2024/01/20 12:01:57;;;;;;;43.10;20.10;;;;;;;;;;10126824;29;20082;-80
2024/01/20 12:06:58;;;;;;;39.43;17.23;;;;;;;;;;10125517;29;20591;-80
2024/01/20 12:12:00;;;;;;;37.87;17.40;;;;;;;;;;10109499;29;20049;-79
2024/01/20 12:17:01;;;;;;;39.40;18.53;;;;;;;;;;10113629;29;20140;-83
2024/01/20 12:22:02;;;;;;;33.37;16.27;;;;;;;;;;10119748;29;20132;-84
2024/01/20 12:27:04;;;;;;;37.30;17.30;;;;;;;;;;10107026;29;20043;-86
2024/01/20 12:32:05;;;;;;;37.57;15.97;;;;;;;;;;10117908;29;20079;-83
2024/01/20 12:37:06;;;;;;;42.07;21.03;;;;;;;;;;10123809;29;20064;-81
2024/01/20 12:42:07;;;;;;;36.83;16.00;;;;;;;;;;10108925;29;20036;-85
2024/01/20 12:47:08;;;;;;;40.53;17.83;;;;;;;;;;10120123;29;20131;-81
2024/01/20 12:52:09;;;;;;;42.30;19.30;;;;;;;;;;10120246;29;20457;-82
2024/01/20 12:57:10;;;;;;;53.07;23.83;;;;;;;;;;10120686;29;20485;-83
2024/01/20 13:02:18;;;;;;;51.93;21.67;;;;;;;;;;10113172;29;20136;-82
2024/01/20 13:07:22;;;;;;;51.73;19.33;;;;;;;;;;10124016;29;20473;-82
2024/01/20 13:12:23;;;;;;;33.70;16.10;;;;;;;;;;10113057;29;20108;-82
2024/01/20 13:17:25;;;;;;;39.53;16.97;;;;;;;;;;10104491;29;20569;-80
2024/01/20 13:22:26;;;;;;;40.33;17.77;;;;;;;;;;10106917;29;20032;-83
2024/01/20 13:27:27;;;;;;;37.20;15.90;;;;;;;;;;10103114;29;20084;-80
2024/01/20 13:32:28;;;;;;;29.07;14.10;;;;;;;;;;10122156;29;20044;-81
2024/01/20 13:37:29;;;;;;;27.57;14.00;;;;;;;;;;10119969;29;20060;-80
2024/01/20 13:42:31;;;;;;;34.67;16.70;;;;;;;;;;10105584;29;20064;-80
2024/01/20 13:47:32;;;;;;;30.10;15.03;;;;;;;;;;10106145;29;20518;-80
2024/01/20 13:52:33;;;;;;;49.03;20.97;;;;;;;;;;10115462;29;20032;-82
2024/01/20 13:57:34;;;;;;;36.30;16.07;;;;;;;;;;10118694;29;20024;-79
2024/01/20 14:02:35;;;;;;;38.23;16.00;;;;;;;;;;10117048;29;20509;-78
2024/01/20 14:07:36;;;;;;;57.43;23.63;;;;;;;;;;10120927;29;20059;-79
2024/01/20 14:12:37;;;;;;;70.37;25.07;;;;;;;;;;10116752;29;20043;-79
2024/01/20 14:17:38;;;;;;;61.07;25.00;;;;;;;;;;10117572;29;20096;-78
2024/01/20 14:22:40;;;;;;;56.13;22.33;;;;;;;;;;10101655;29;20055;-79
2024/01/20 14:27:41;;;;;;;50.60;20.90;;;;;;;;;;10131909;24;20067;-80
2024/01/20 14:32:42;;;;;;;66.43;25.03;;;;;;;;;;10132957;29;20051;-79
2024/01/20 14:37:50;;;;;;;74.93;28.93;;;;;;;;;;10132485;29;20043;-78
2024/01/20 14:42:51;;;;;;;57.67;25.33;;;;;;;;;;10097146;29;20033;-83
2024/01/20 14:47:52;;;;;;;49.70;21.57;;;;;;;;;;10070443;29;20107;-81
2024/01/20 14:52:53;;;;;;;42.57;20.20;;;;;;;;;;10103971;29;20155;-79
2024/01/20 14:57:55;;;;;;;42.57;18.87;;;;;;;;;;10066999;29;20045;-79
2024/01/20 15:02:56;;;;;;;57.43;23.47;;;;;;;;;;10065708;29;20778;-80
2024/01/20 15:07:57;;;;;;;50.13;20.50;;;;;;;;;;10085206;29;20042;-79
2024/01/20 15:12:58;;;;;;;51.20;20.60;;;;;;;;;;10083201;29;20148;-78
2024/01/20 15:17:59;;;;;;;41.37;18.80;;;;;;;;;;10091311;29;20048;-79
2024/01/20 15:23:02;;;;;;;53.80;23.13;;;;;;;;;;10092787;29;20135;-79
2024/01/20 15:28:04;;;;;;;65.07;23.20;;;;;;;;;;10087913;29;20462;-79
2024/01/20 15:33:08;;;;;;;56.80;24.40;;;;;;;;;;10092809;29;20146;-80
2024/01/20 15:38:10;;;;;;;54.30;22.23;;;;;;;;;;10102162;29;20042;-80
2024/01/20 15:43:11;;;;;;;71.87;30.73;;;;;;;;;;10092276;29;20049;-80
2024/01/20 15:48:13;;;;;;;55.80;23.73;;;;;;;;;;10113892;29;20581;-81
2024/01/20 15:53:14;;;;;;;56.17;23.50;;;;;;;;;;10101704;29;20092;-80
2024/01/20 15:58:16;;;;;;;54.87;22.87;;;;;;;;;;10113412;29;20046;-81
2024/01/20 16:03:17;;;;;;;58.13;24.87;;;;;;;;;;10092059;29;20044;-80
2024/01/20 16:08:18;;;;;;;74.20;31.40;;;;;;;;;;10080794;29;20620;-83
2024/01/20 16:13:25;;;;;;;76.47;30.60;;;;;;;;;;10081677;29;20125;-80
2024/01/20 16:18:27;;;;;;;53.13;24.53;;;;;;;;;;10086153;29;20037;-79
2024/01/20 16:23:28;;;;;;;58.43;26.73;;;;;;;;;;10080530;29;20703;-80
2024/01/20 16:28:29;;;;;;;65.73;28.67;;;;;;;;;;10059761;29;20568;-79
2024/01/20 16:33:30;;;;;;;63.83;27.83;;;;;;;;;;10081397;29;20025;-84
2024/01/20 16:38:32;;;;;;;66.07;28.50;;;;;;;;;;10075109;29;20112;-81
2024/01/20 16:43:33;;;;;;;63.60;25.73;;;;;;;;;;10071200;29;20117;-80
2024/01/20 16:48:34;;;;;;;63.53;26.87;;;;;;;;;;10069228;29;20441;-80
2024/01/20 16:53:37;;;;;;;65.73;28.90;;;;;;;;;;10097413;23;20231;-83
2024/01/20 16:58:38;;;;;;;61.43;27.20;;;;;;;;;;10119528;29;20036;-81
2024/01/20 17:03:39;;;;;;;63.53;27.57;;;;;;;;;;10121151;29;20044;-84
2024/01/20 17:08:42;;;;;;;63.80;26.03;;;;;;;;;;10114740;29;20037;-80
2024/01/20 17:13:44;;;;;;;87.40;40.17;;;;;;;;;;10111859;29;20048;-82
2024/01/20 17:18:46;;;;;;;65.20;29.77;;;;;;;;;;10112485;29;20036;-82
2024/01/20 17:23:47;;;;;;;68.70;32.03;;;;;;;;;;10123174;29;20056;-81
2024/01/20 17:28:48;;;;;;;70.60;30.63;;;;;;;;;;10123699;29;20147;-81
2024/01/20 17:33:50;;;;;;;65.13;27.93;;;;;;;;;;10105792;29;20038;-81
2024/01/20 17:38:58;;;;;;;64.17;26.00;;;;;;;;;;10118692;29;20029;-83
2024/01/20 17:43:59;;;;;;;55.57;26.50;;;;;;;;;;10109812;29;20029;-81
2024/01/20 17:49:00;;;;;;;58.83;26.13;;;;;;;;;;10113570;29;20084;-82
2024/01/20 17:54:01;;;;;;;56.17;23.40;;;;;;;;;;10117056;29;20076;-81
2024/01/20 17:59:02;;;;;;;58.77;26.53;;;;;;;;;;10121847;29;20068;-82
2024/01/20 18:04:03;;;;;;;54.20;23.83;;;;;;;;;;10117487;29;20202;-80
2024/01/20 18:09:04;;;;;;;58.77;26.43;;;;;;;;;;10104186;29;20099;-83
2024/01/20 18:14:05;;;;;;;63.40;27.40;;;;;;;;;;10101115;29;20135;-81
2024/01/20 18:19:07;;;;;;;63.83;27.57;;;;;;;;;;10102466;29;20140;-80
2024/01/20 18:24:08;;;;;;;55.50;25.97;;;;;;;;;;10104316;29;20048;-81
2024/01/20 18:29:09;;;;;;;60.20;25.83;;;;;;;;;;10101196;29;20048;-82
2024/01/20 18:34:11;;;;;;;53.00;24.57;;;;;;;;;;10101393;29;20465;-80
2024/01/20 18:39:12;;;;;;;44.77;22.10;;;;;;;;;;10103252;29;20029;-81
2024/01/20 18:44:14;;;;;;;54.03;23.27;;;;;;;;;;10094759;29;20032;-82
2024/01/20 18:49:15;;;;;;;61.07;24.17;;;;;;;;;;10110188;29;20454;-81
2024/01/20 18:54:22;;;;;;;56.17;25.00;;;;;;;;;;10095922;29;20529;-83
2024/01/20 18:59:24;;;;;;;49.03;22.47;;;;;;;;;;10112802;29;20040;-81
2024/01/20 19:04:26;;;;;;;54.63;24.53;;;;;;;;;;10112691;29;20396;-80
2024/01/20 19:09:27;;;;;;;59.53;25.20;;;;;;;;;;10117020;29;20036;-82
2024/01/20 19:14:29;;;;;;;69.97;30.67;;;;;;;;;;10123536;29;20033;-80
2024/01/20 19:19:31;;;;;;;56.40;25.93;;;;;;;;;;10127752;29;20035;-80
2024/01/20 19:24:33;;;;;;;62.93;25.40;;;;;;;;;;10116965;29;20112;-82
2024/01/20 19:29:34;;;;;;;96.47;35.67;;;;;;;;;;10124151;29;20048;-82
2024/01/20 19:34:36;;;;;;;106.97;37.00;;;;;;;;;;10120464;29;20039;-80
2024/01/20 19:39:37;;;;;;;76.60;31.20;;;;;;;;;;10121988;29;20035;-82
2024/01/20 19:44:38;;;;;;;96.27;36.57;;;;;;;;;;10121568;29;20032;-82
2024/01/20 19:49:39;;;;;;;79.40;31.27;;;;;;;;;;10124316;29;20103;-81
2024/01/20 19:54:40;;;;;;;78.97;30.67;;;;;;;;;;10124754;29;20028;-81
2024/01/20 19:59:41;;;;;;;86.60;35.10;;;;;;;;;;10124349;29;20040;-81
2024/01/20 20:04:43;;;;;;;87.77;35.00;;;;;;;;;;10117390;29;20047;-81
2024/01/20 20:09:44;;;;;;;84.20;35.67;;;;;;;;;;10125667;29;20076;-80
2024/01/20 20:14:45;;;;;;;85.97;32.63;;;;;;;;;;10107242;29;20037;-80
2024/01/20 20:19:47;;;;;;;73.33;30.73;;;;;;;;;;10096877;29;20039;-83
2024/01/20 20:24:48;;;;;;;69.27;27.93;;;;;;;;;;10102700;29;20039;-80
2024/01/20 20:29:49;;;;;;;69.17;28.43;;;;;;;;;;10123729;29;20062;-82
2024/01/20 20:34:50;;;;;;;68.50;29.17;;;;;;;;;;10099413;29;20107;-82
2024/01/20 20:39:51;;;;;;;73.13;31.30;;;;;;;;;;10124336;29;20036;-80
2024/01/20 20:44:53;;;;;;;76.47;32.40;;;;;;;;;;10121822;29;20389;-79
2024/01/20 20:49:54;;;;;;;79.33;32.83;;;;;;;;;;10122845;29;20068;-83
2024/01/20 20:54:55;;;;;;;70.73;31.47;;;;;;;;;;10119371;29;20047;-81
2024/01/20 20:59:56;;;;;;;70.70;30.17;;;;;;;;;;10123635;29;20025;-80
2024/01/20 21:04:57;;;;;;;84.67;35.27;;;;;;;;;;10118725;29;20061;-81
2024/01/20 21:09:59;;;;;;;85.30;34.03;;;;;;;;;;10102101;29;20044;-82
2024/01/20 21:15:06;;;;;;;112.07;41.70;;;;;;;;;;10104914;29;20067;-82
2024/01/20 21:20:11;;;;;;;95.27;36.70;;;;;;;;;;10123260;29;20064;-80
2024/01/20 21:25:12;;;;;;;91.57;34.47;;;;;;;;;;10100915;29;20037;-83
2024/01/20 21:30:13;;;;;;;95.73;35.97;;;;;;;;;;10116126;29;20056;-83
2024/01/20 21:35:14;;;;;;;87.10;34.43;;;;;;;;;;10116618;29;20032;-81
2024/01/20 21:40:15;;;;;;;79.50;32.80;;;;;;;;;;10120604;29;20037;-81
2024/01/20 21:45:17;;;;;;;87.77;34.27;;;;;;;;;;10103963;29;20029;-82
2024/01/20 21:50:18;;;;;;;82.53;33.30;;;;;;;;;;10100497;29;20067;-81
2024/01/20 21:55:19;;;;;;;81.83;32.97;;;;;;;;;;10123009;29;20057;-82
2024/01/20 22:00:20;;;;;;;83.97;33.23;;;;;;;;;;10116921;29;20033;-82
2024/01/20 22:05:22;;;;;;;68.70;27.50;;;;;;;;;;10120874;29;20148;-80
2024/01/20 22:10:32;;;;;;;75.60;29.57;;;;;;;;;;10100065;29;20056;-81
2024/01/20 22:15:33;;;;;;;67.57;26.77;;;;;;;;;;10102125;29;20747;-82
2024/01/20 22:20:34;;;;;;;84.03;33.80;;;;;;;;;;10121178;29;20521;-80
2024/01/20 22:25:35;;;;;;;72.97;28.70;;;;;;;;;;10105127;29;20029;-81
2024/01/20 22:30:36;;;;;;;68.53;30.57;;;;;;;;;;10114237;29;20044;-80
2024/01/20 22:35:37;;;;;;;72.80;30.80;;;;;;;;;;10099115;29;20036;-82
2024/01/20 22:40:38;;;;;;;87.37;35.07;;;;;;;;;;10121007;29;20036;-81
2024/01/20 22:45:40;;;;;;;68.60;29.47;;;;;;;;;;10120413;29;20032;-82
2024/01/20 22:50:41;;;;;;;86.83;36.87;;;;;;;;;;10120937;29;20052;-82
2024/01/20 22:55:42;;;;;;;75.80;32.60;;;;;;;;;;10120091;29;20120;-83
2024/01/20 23:00:43;;;;;;;74.10;29.60;;;;;;;;;;10119523;29;20180;-81
2024/01/20 23:05:44;;;;;;;72.10;30.80;;;;;;;;;;10119954;29;20099;-80
2024/01/20 23:10:45;;;;;;;72.33;31.83;;;;;;;;;;10118760;29;20080;-81
2024/01/20 23:15:46;;;;;;;77.20;34.93;;;;;;;;;;10112602;29;20115;-82
2024/01/20 23:20:48;;;;;;;75.17;33.13;;;;;;;;;;10103757;29;20025;-80
2024/01/20 23:25:49;;;;;;;79.80;36.63;;;;;;;;;;10121765;29;20168;-82
2024/01/20 23:30:50;;;;;;;74.97;33.63;;;;;;;;;;10123429;29;20047;-81
2024/01/20 23:35:51;;;;;;;74.97;34.27;;;;;;;;;;10127541;29;20042;-83
2024/01/20 23:40:52;;;;;;;74.40;33.60;;;;;;;;;;10125947;29;20130;-82
2024/01/20 23:45:53;;;;;;;79.23;35.23;;;;;;;;;;10125603;29;20453;-82
2024/01/20 23:50:54;;;;;;;71.23;34.47;;;;;;;;;;10098624;29;20068;-83
2024/01/20 23:55:55;;;;;;;73.70;33.93;;;;;;;;;;10126360;29;20024;-83
